sensor_id;sensor_type;location;lat;lon;timestamp;P1;durP1;ratioP1;P2;durP2;ratioP2
39098;SDS011;24844;52.380;7.018;2023-08-08T00:01:00;7.70;;;3.28;;
39098;SDS011;24844;52.380;7.018;2023-08-08T00:03:26;6.55;;;4.00;;
39098;SDS011;24844;52.380;7.018;2023-08-08T00:05:52;7.15;;;3.22;;
39098;SDS011;24844;52.380;7.018;2023-08-08T00:08:18;7.53;;;3.38;;
39098;SDS011;24844;52.380;7.018;2023-08-08T00:10:43;6.10;;;3.78;;
39098;SDS011;24844;52.380;7.018;2023-08-08T00:13:09;6.20;;;3.20;;
39098;SDS011;24844;52.380;7.018;2023-08-08T00:15:34;5.70;;;3.60;;
39098;SDS011;24844;52.380;7.018;2023-08-08T00:18:01;8.68;;;3.60;;
39098;SDS011;24844;52.380;7.018;2023-08-08T00:20:27;7.10;;;3.83;;
39098;SDS011;24844;52.380;7.018;2023-08-08T00:22:52;7.78;;;3.63;;
39098;SDS011;24844;52.380;7.018;2023-08-08T00:25:18;4.90;;;3.33;;
39098;SDS011;24844;52.380;7.018;2023-08-08T00:27:43;7.13;;;3.63;;
39098;SDS011;24844;52.380;7.018;2023-08-08T00:30:10;11.70;;;4.55;;
39098;SDS011;24844;52.380;7.018;2023-08-08T00:32:37;5.23;;;3.53;;
39098;SDS011;24844;52.380;7.018;2023-08-08T00:35:02;6.20;;;3.83;;
39098;SDS011;24844;52.380;7.018;2023-08-08T00:37:28;5.07;;;3.20;;
39098;SDS011;24844;52.380;7.018;2023-08-08T00:39:54;5.90;;;3.72;;
39098;SDS011;24844;52.380;7.018;2023-08-08T00:42:19;7.57;;;3.63;;
39098;SDS011;24844;52.380;7.018;2023-08-08T00:44:45;10.00;;;3.58;;
39098;SDS011;24844;52.380;7.018;2023-08-08T00:47:10;9.35;;;4.30;;
39098;SDS011;24844;52.380;7.018;2023-08-08T00:49:37;7.50;;;4.65;;
39098;SDS011;24844;52.380;7.018;2023-08-08T00:52:03;5.72;;;4.50;;
39098;SDS011;24844;52.380;7.018;2023-08-08T00:54:30;7.30;;;4.45;;
39098;SDS011;24844;52.380;7.018;2023-08-08T00:56:56;7.63;;;4.70;;
39098;SDS011;24844;52.380;7.018;2023-08-08T00:59:22;11.07;;;4.45;;
39098;SDS011;24844;52.380;7.018;2023-08-08T01:01:49;11.75;;;5.72;;
39098;SDS011;24844;52.380;7.018;2023-08-08T01:04:14;7.10;;;4.70;;
39098;SDS011;24844;52.380;7.018;2023-08-08T01:09:37;7.28;;;4.45;;
39098;SDS011;24844;52.380;7.018;2023-08-08T01:12:08;10.07;;;5.90;;
39098;SDS011;24844;52.380;7.018;2023-08-08T01:14:37;10.07;;;5.38;;
39098;SDS011;24844;52.380;7.018;2023-08-08T01:17:05;8.60;;;5.93;;
39098;SDS011;24844;52.380;7.018;2023-08-08T01:19:31;6.93;;;4.90;;
39098;SDS011;24844;52.380;7.018;2023-08-08T01:22:11;10.48;;;5.95;;
39098;SDS011;24844;52.380;7.018;2023-08-08T01:24:46;7.25;;;4.72;;
39098;SDS011;24844;52.380;7.018;2023-08-08T01:27:12;8.93;;;4.65;;
39098;SDS011;24844;52.380;7.018;2023-08-08T01:29:38;9.90;;;5.60;;
39098;SDS011;24844;52.380;7.018;2023-08-08T01:32:04;7.47;;;5.55;;
39098;SDS011;24844;52.380;7.018;2023-08-08T01:34:30;10.38;;;5.70;;
39098;SDS011;24844;52.380;7.018;2023-08-08T01:36:56;11.40;;;5.25;;
39098;SDS011;24844;52.380;7.018;2023-08-08T01:39:29;9.35;;;5.07;;
39098;SDS011;24844;52.380;7.018;2023-08-08T01:41:55;12.85;;;5.90;;
39098;SDS011;24844;52.380;7.018;2023-08-08T01:44:23;9.07;;;5.10;;
39098;SDS011;24844;52.380;7.018;2023-08-08T01:46:50;11.30;;;5.18;;
39098;SDS011;24844;52.380;7.018;2023-08-08T01:49:16;9.10;;;5.15;;
39098;SDS011;24844;52.380;7.018;2023-08-08T01:51:41;8.98;;;4.53;;
39098;SDS011;24844;52.380;7.018;2023-08-08T01:54:07;10.48;;;4.85;;
39098;SDS011;24844;52.380;7.018;2023-08-08T01:56:32;9.88;;;5.10;;
39098;SDS011;24844;52.380;7.018;2023-08-08T01:58:58;9.25;;;5.13;;
39098;SDS011;24844;52.380;7.018;2023-08-08T02:01:23;7.75;;;5.20;;
39098;SDS011;24844;52.380;7.018;2023-08-08T02:03:49;9.43;;;4.97;;
39098;SDS011;24844;52.380;7.018;2023-08-08T02:06:15;10.20;;;5.18;;
39098;SDS011;24844;52.380;7.018;2023-08-08T02:08:40;10.90;;;5.15;;
39098;SDS011;24844;52.380;7.018;2023-08-08T02:11:06;18.80;;;6.07;;
39098;SDS011;24844;52.380;7.018;2023-08-08T02:13:31;11.05;;;5.15;;
39098;SDS011;24844;52.380;7.018;2023-08-08T02:15:57;12.32;;;5.50;;
39098;SDS011;24844;52.380;7.018;2023-08-08T02:18:22;11.30;;;4.70;;
39098;SDS011;24844;52.380;7.018;2023-08-08T02:20:48;9.40;;;4.93;;
39098;SDS011;24844;52.380;7.018;2023-08-08T02:23:14;9.52;;;5.03;;
39098;SDS011;24844;52.380;7.018;2023-08-08T02:25:39;14.80;;;5.75;;
39098;SDS011;24844;52.380;7.018;2023-08-08T02:28:05;11.15;;;5.40;;
39098;SDS011;24844;52.380;7.018;2023-08-08T02:30:31;8.43;;;4.03;;
39098;SDS011;24844;52.380;7.018;2023-08-08T02:32:56;14.43;;;5.65;;
39098;SDS011;24844;52.380;7.018;2023-08-08T02:35:22;14.52;;;6.35;;
39098;SDS011;24844;52.380;7.018;2023-08-08T02:37:47;11.20;;;5.55;;
39098;SDS011;24844;52.380;7.018;2023-08-08T02:40:13;12.60;;;5.65;;
39098;SDS011;24844;52.380;7.018;2023-08-08T02:42:39;15.80;;;6.68;;
39098;SDS011;24844;52.380;7.018;2023-08-08T02:45:04;14.65;;;6.95;;
39098;SDS011;24844;52.380;7.018;2023-08-08T02:47:31;15.73;;;7.78;;
39098;SDS011;24844;52.380;7.018;2023-08-08T02:49:56;11.60;;;6.53;;
39098;SDS011;24844;52.380;7.018;2023-08-08T02:52:22;10.32;;;6.00;;
39098;SDS011;24844;52.380;7.018;2023-08-08T02:54:47;13.93;;;6.88;;
39098;SDS011;24844;52.380;7.018;2023-08-08T02:57:13;12.50;;;6.13;;
39098;SDS011;24844;52.380;7.018;2023-08-08T02:59:39;15.40;;;7.05;;
39098;SDS011;24844;52.380;7.018;2023-08-08T03:02:04;14.25;;;7.18;;
39098;SDS011;24844;52.380;7.018;2023-08-08T03:04:30;15.80;;;7.85;;
39098;SDS011;24844;52.380;7.018;2023-08-08T03:06:55;15.23;;;6.97;;
39098;SDS011;24844;52.380;7.018;2023-08-08T03:09:21;13.73;;;6.28;;
39098;SDS011;24844;52.380;7.018;2023-08-08T03:11:47;14.55;;;6.90;;
39098;SDS011;24844;52.380;7.018;2023-08-08T03:14:12;17.52;;;7.90;;
39098;SDS011;24844;52.380;7.018;2023-08-08T03:16:38;19.38;;;8.25;;
39098;SDS011;24844;52.380;7.018;2023-08-08T03:19:04;15.02;;;7.85;;
39098;SDS011;24844;52.380;7.018;2023-08-08T03:21:30;18.88;;;7.57;;
39098;SDS011;24844;52.380;7.018;2023-08-08T03:23:56;11.05;;;6.30;;
39098;SDS011;24844;52.380;7.018;2023-08-08T03:26:22;15.70;;;7.72;;
39098;SDS011;24844;52.380;7.018;2023-08-08T03:28:48;17.80;;;9.05;;
39098;SDS011;24844;52.380;7.018;2023-08-08T03:31:16;15.68;;;8.07;;
39098;SDS011;24844;52.380;7.018;2023-08-08T03:33:42;12.77;;;7.43;;
39098;SDS011;24844;52.380;7.018;2023-08-08T03:36:08;17.58;;;7.65;;
39098;SDS011;24844;52.380;7.018;2023-08-08T03:38:34;22.30;;;7.82;;
39098;SDS011;24844;52.380;7.018;2023-08-08T03:41:00;13.00;;;7.82;;
39098;SDS011;24844;52.380;7.018;2023-08-08T03:43:26;19.08;;;8.65;;
39098;SDS011;24844;52.380;7.018;2023-08-08T03:45:51;14.70;;;7.85;;
39098;SDS011;24844;52.380;7.018;2023-08-08T03:48:17;19.80;;;8.00;;
39098;SDS011;24844;52.380;7.018;2023-08-08T03:50:43;10.57;;;6.78;;
39098;SDS011;24844;52.380;7.018;2023-08-08T03:53:08;12.88;;;6.68;;
39098;SDS011;24844;52.380;7.018;2023-08-08T03:55:34;14.55;;;7.68;;
39098;SDS011;24844;52.380;7.018;2023-08-08T03:57:59;17.27;;;8.10;;
39098;SDS011;24844;52.380;7.018;2023-08-08T04:00:25;18.00;;;8.70;;
39098;SDS011;24844;52.380;7.018;2023-08-08T04:02:50;17.52;;;8.40;;
39098;SDS011;24844;52.380;7.018;2023-08-08T04:05:16;17.05;;;7.15;;
39098;SDS011;24844;52.380;7.018;2023-08-08T04:07:42;13.63;;;6.63;;
39098;SDS011;24844;52.380;7.018;2023-08-08T04:10:07;19.02;;;9.25;;
39098;SDS011;24844;52.380;7.018;2023-08-08T04:12:33;15.23;;;8.73;;
39098;SDS011;24844;52.380;7.018;2023-08-08T04:14:59;16.85;;;7.70;;
39098;SDS011;24844;52.380;7.018;2023-08-08T04:17:24;13.68;;;8.27;;
39098;SDS011;24844;52.380;7.018;2023-08-08T04:19:50;15.23;;;8.10;;
39098;SDS011;24844;52.380;7.018;2023-08-08T04:22:16;18.55;;;8.50;;
39098;SDS011;24844;52.380;7.018;2023-08-08T04:24:42;19.70;;;7.88;;
39098;SDS011;24844;52.380;7.018;2023-08-08T04:27:08;14.00;;;7.40;;
39098;SDS011;24844;52.380;7.018;2023-08-08T04:29:35;20.13;;;9.13;;
39098;SDS011;24844;52.380;7.018;2023-08-08T04:32:01;15.57;;;7.13;;
39098;SDS011;24844;52.380;7.018;2023-08-08T04:34:26;13.38;;;6.85;;
39098;SDS011;24844;52.380;7.018;2023-08-08T04:36:52;18.23;;;7.60;;
39098;SDS011;24844;52.380;7.018;2023-08-08T04:39:17;16.02;;;7.93;;
39098;SDS011;24844;52.380;7.018;2023-08-08T04:41:43;18.10;;;7.53;;
39098;SDS011;24844;52.380;7.018;2023-08-08T04:44:09;13.73;;;7.13;;
39098;SDS011;24844;52.380;7.018;2023-08-08T04:46:34;15.75;;;7.68;;
39098;SDS011;24844;52.380;7.018;2023-08-08T04:49:00;13.05;;;6.53;;
39098;SDS011;24844;52.380;7.018;2023-08-08T04:51:25;19.05;;;6.68;;
39098;SDS011;24844;52.380;7.018;2023-08-08T04:53:51;14.32;;;5.80;;
39098;SDS011;24844;52.380;7.018;2023-08-08T04:56:16;11.18;;;5.70;;
39098;SDS011;24844;52.380;7.018;2023-08-08T04:58:42;12.73;;;5.28;;
39098;SDS011;24844;52.380;7.018;2023-08-08T05:01:07;12.88;;;5.20;;
39098;SDS011;24844;52.380;7.018;2023-08-08T05:03:39;15.63;;;5.43;;
39098;SDS011;24844;52.380;7.018;2023-08-08T05:06:05;11.73;;;4.22;;
39098;SDS011;24844;52.380;7.018;2023-08-08T05:08:31;7.18;;;3.45;;
39098;SDS011;24844;52.380;7.018;2023-08-08T05:10:56;9.45;;;4.32;;
39098;SDS011;24844;52.380;7.018;2023-08-08T05:13:22;10.73;;;4.40;;
39098;SDS011;24844;52.380;7.018;2023-08-08T05:15:47;11.50;;;3.88;;
39098;SDS011;24844;52.380;7.018;2023-08-08T05:18:13;9.10;;;4.22;;
39098;SDS011;24844;52.380;7.018;2023-08-08T05:20:39;9.73;;;4.30;;
39098;SDS011;24844;52.380;7.018;2023-08-08T05:23:05;7.28;;;3.65;;
39098;SDS011;24844;52.380;7.018;2023-08-08T05:25:30;8.02;;;3.90;;
39098;SDS011;24844;52.380;7.018;2023-08-08T05:27:56;10.60;;;3.35;;
39098;SDS011;24844;52.380;7.018;2023-08-08T05:30:21;9.40;;;3.83;;
39098;SDS011;24844;52.380;7.018;2023-08-08T05:32:47;7.97;;;3.38;;
39098;SDS011;24844;52.380;7.018;2023-08-08T05:35:13;11.77;;;3.40;;
39098;SDS011;24844;52.380;7.018;2023-08-08T05:37:39;6.82;;;2.95;;
39098;SDS011;24844;52.380;7.018;2023-08-08T05:40:04;9.65;;;4.00;;
39098;SDS011;24844;52.380;7.018;2023-08-08T05:42:31;7.10;;;3.83;;
39098;SDS011;24844;52.380;7.018;2023-08-08T05:44:57;8.07;;;3.85;;
39098;SDS011;24844;52.380;7.018;2023-08-08T05:47:23;6.63;;;3.33;;
39098;SDS011;24844;52.380;7.018;2023-08-08T05:49:48;18.17;;;4.57;;
39098;SDS011;24844;52.380;7.018;2023-08-08T05:52:14;12.25;;;4.20;;
39098;SDS011;24844;52.380;7.018;2023-08-08T05:54:40;6.47;;;3.30;;
39098;SDS011;24844;52.380;7.018;2023-08-08T05:57:05;9.13;;;3.33;;
39098;SDS011;24844;52.380;7.018;2023-08-08T05:59:31;10.77;;;3.40;;
39098;SDS011;24844;52.380;7.018;2023-08-08T06:01:57;6.25;;;3.08;;
39098;SDS011;24844;52.380;7.018;2023-08-08T06:04:23;7.80;;;3.42;;
39098;SDS011;24844;52.380;7.018;2023-08-08T06:06:49;8.90;;;3.60;;
39098;SDS011;24844;52.380;7.018;2023-08-08T06:09:15;10.80;;;3.72;;
39098;SDS011;24844;52.380;7.018;2023-08-08T06:11:41;11.05;;;3.85;;
39098;SDS011;24844;52.380;7.018;2023-08-08T06:14:07;8.93;;;3.55;;
39098;SDS011;24844;52.380;7.018;2023-08-08T06:16:33;8.98;;;3.85;;
39098;SDS011;24844;52.380;7.018;2023-08-08T06:18:58;12.30;;;4.15;;
39098;SDS011;24844;52.380;7.018;2023-08-08T06:21:24;10.07;;;3.90;;
39098;SDS011;24844;52.380;7.018;2023-08-08T06:23:50;10.50;;;4.43;;
39098;SDS011;24844;52.380;7.018;2023-08-08T06:26:17;11.40;;;4.18;;
39098;SDS011;24844;52.380;7.018;2023-08-08T06:28:43;8.13;;;3.40;;
39098;SDS011;24844;52.380;7.018;2023-08-08T06:31:08;7.72;;;3.53;;
39098;SDS011;24844;52.380;7.018;2023-08-08T06:33:34;7.38;;;3.05;;
39098;SDS011;24844;52.380;7.018;2023-08-08T06:35:59;7.75;;;3.40;;
39098;SDS011;24844;52.380;7.018;2023-08-08T06:38:25;8.93;;;3.47;;
39098;SDS011;24844;52.380;7.018;2023-08-08T06:40:50;10.25;;;3.33;;
39098;SDS011;24844;52.380;7.018;2023-08-08T06:43:16;11.73;;;3.47;;
39098;SDS011;24844;52.380;7.018;2023-08-08T06:45:42;7.00;;;2.63;;
39098;SDS011;24844;52.380;7.018;2023-08-08T06:48:08;9.05;;;2.88;;
39098;SDS011;24844;52.380;7.018;2023-08-08T06:50:34;8.65;;;3.78;;
39098;SDS011;24844;52.380;7.018;2023-08-08T06:52:59;7.85;;;3.03;;
39098;SDS011;24844;52.380;7.018;2023-08-08T06:55:25;9.82;;;4.00;;
39098;SDS011;24844;52.380;7.018;2023-08-08T06:57:51;8.98;;;2.95;;
39098;SDS011;24844;52.380;7.018;2023-08-08T07:00:16;9.40;;;2.80;;
39098;SDS011;24844;52.380;7.018;2023-08-08T07:02:42;9.00;;;2.97;;
39098;SDS011;24844;52.380;7.018;2023-08-08T07:05:08;5.18;;;2.35;;
39098;SDS011;24844;52.380;7.018;2023-08-08T07:07:34;10.55;;;2.65;;
39098;SDS011;24844;52.380;7.018;2023-08-08T07:10:00;7.05;;;2.30;;
39098;SDS011;24844;52.380;7.018;2023-08-08T07:12:26;9.27;;;2.53;;
39098;SDS011;24844;52.380;7.018;2023-08-08T07:14:51;10.82;;;2.63;;
39098;SDS011;24844;52.380;7.018;2023-08-08T07:17:17;10.70;;;4.80;;
39098;SDS011;24844;52.380;7.018;2023-08-08T07:19:42;6.28;;;2.25;;
39098;SDS011;24844;52.380;7.018;2023-08-08T07:22:08;6.88;;;2.42;;
39098;SDS011;24844;52.380;7.018;2023-08-08T07:24:34;12.60;;;2.08;;
39098;SDS011;24844;52.380;7.018;2023-08-08T07:27:00;5.90;;;1.58;;
39098;SDS011;24844;52.380;7.018;2023-08-08T07:29:26;4.60;;;1.85;;
39098;SDS011;24844;52.380;7.018;2023-08-08T07:31:52;8.23;;;1.65;;
39098;SDS011;24844;52.380;7.018;2023-08-08T07:34:18;7.95;;;5.28;;
39098;SDS011;24844;52.380;7.018;2023-08-08T07:36:44;4.95;;;2.20;;
39098;SDS011;24844;52.380;7.018;2023-08-08T07:39:10;6.75;;;2.92;;
39098;SDS011;24844;52.380;7.018;2023-08-08T07:41:35;5.47;;;3.15;;
39098;SDS011;24844;52.380;7.018;2023-08-08T07:44:01;5.18;;;3.70;;
39098;SDS011;24844;52.380;7.018;2023-08-08T07:46:27;26.33;;;23.65;;
39098;SDS011;24844;52.380;7.018;2023-08-08T07:48:53;6.55;;;2.78;;
39098;SDS011;24844;52.380;7.018;2023-08-08T07:51:18;6.78;;;2.40;;
39098;SDS011;24844;52.380;7.018;2023-08-08T07:53:44;8.43;;;5.22;;
39098;SDS011;24844;52.380;7.018;2023-08-08T07:56:10;4.80;;;2.67;;
39098;SDS011;24844;52.380;7.018;2023-08-08T07:58:35;8.45;;;1.88;;
39098;SDS011;24844;52.380;7.018;2023-08-08T08:01:01;7.88;;;2.10;;
39098;SDS011;24844;52.380;7.018;2023-08-08T08:03:26;4.95;;;1.83;;
39098;SDS011;24844;52.380;7.018;2023-08-08T08:05:52;6.18;;;2.42;;
39098;SDS011;24844;52.380;7.018;2023-08-08T08:08:18;5.03;;;2.22;;
39098;SDS011;24844;52.380;7.018;2023-08-08T08:10:44;7.30;;;2.95;;
39098;SDS011;24844;52.380;7.018;2023-08-08T08:13:10;3.90;;;2.55;;
39098;SDS011;24844;52.380;7.018;2023-08-08T08:15:37;4.70;;;1.60;;
39098;SDS011;24844;52.380;7.018;2023-08-08T08:18:03;4.88;;;2.75;;
39098;SDS011;24844;52.380;7.018;2023-08-08T08:20:29;5.28;;;3.30;;
39098;SDS011;24844;52.380;7.018;2023-08-08T08:22:54;3.75;;;3.25;;
39098;SDS011;24844;52.380;7.018;2023-08-08T08:25:20;6.30;;;1.73;;
39098;SDS011;24844;52.380;7.018;2023-08-08T08:27:45;8.25;;;7.53;;
39098;SDS011;24844;52.380;7.018;2023-08-08T08:30:11;5.45;;;4.15;;
39098;SDS011;24844;52.380;7.018;2023-08-08T08:32:39;16.67;;;15.23;;
39098;SDS011;24844;52.380;7.018;2023-08-08T08:35:05;5.75;;;5.22;;
39098;SDS011;24844;52.380;7.018;2023-08-08T08:37:32;6.68;;;5.15;;
39098;SDS011;24844;52.380;7.018;2023-08-08T08:39:58;4.22;;;2.97;;
39098;SDS011;24844;52.380;7.018;2023-08-08T08:42:24;13.57;;;12.20;;
39098;SDS011;24844;52.380;7.018;2023-08-08T08:44:53;12.18;;;8.38;;
39098;SDS011;24844;52.380;7.018;2023-08-08T08:47:22;12.93;;;11.70;;
39098;SDS011;24844;52.380;7.018;2023-08-08T08:49:49;21.30;;;19.60;;
39098;SDS011;24844;52.380;7.018;2023-08-08T08:52:17;4.90;;;3.05;;
39098;SDS011;24844;52.380;7.018;2023-08-08T08:54:43;4.55;;;4.13;;
39098;SDS011;24844;52.380;7.018;2023-08-08T08:57:09;6.88;;;4.30;;
39098;SDS011;24844;52.380;7.018;2023-08-08T08:59:35;5.82;;;3.40;;
39098;SDS011;24844;52.380;7.018;2023-08-08T09:02:00;7.15;;;6.38;;
39098;SDS011;24844;52.380;7.018;2023-08-08T09:04:27;12.85;;;11.68;;
39098;SDS011;24844;52.380;7.018;2023-08-08T09:06:54;4.25;;;3.85;;
39098;SDS011;24844;52.380;7.018;2023-08-08T09:09:20;10.15;;;5.93;;
39098;SDS011;24844;52.380;7.018;2023-08-08T09:11:47;6.22;;;5.65;;
39098;SDS011;24844;52.380;7.018;2023-08-08T09:14:24;5.85;;;3.78;;
39098;SDS011;24844;52.380;7.018;2023-08-08T09:16:51;4.82;;;3.25;;
39098;SDS011;24844;52.380;7.018;2023-08-08T09:19:18;8.13;;;5.63;;
39098;SDS011;24844;52.380;7.018;2023-08-08T09:21:44;5.45;;;4.20;;
39098;SDS011;24844;52.380;7.018;2023-08-08T09:24:10;4.43;;;3.55;;
39098;SDS011;24844;52.380;7.018;2023-08-08T09:26:39;6.63;;;3.92;;
39098;SDS011;24844;52.380;7.018;2023-08-08T09:29:05;3.03;;;2.38;;
39098;SDS011;24844;52.380;7.018;2023-08-08T09:31:31;4.72;;;2.08;;
39098;SDS011;24844;52.380;7.018;2023-08-08T09:33:59;7.22;;;5.85;;
39098;SDS011;24844;52.380;7.018;2023-08-08T09:36:26;5.13;;;2.22;;
39098;SDS011;24844;52.380;7.018;2023-08-08T09:38:52;5.78;;;3.95;;
39098;SDS011;24844;52.380;7.018;2023-08-08T09:41:20;5.15;;;4.28;;
39098;SDS011;24844;52.380;7.018;2023-08-08T09:43:52;7.78;;;2.70;;
39098;SDS011;24844;52.380;7.018;2023-08-08T09:46:19;3.55;;;2.13;;
39098;SDS011;24844;52.380;7.018;2023-08-08T09:48:45;5.78;;;1.83;;
39098;SDS011;24844;52.380;7.018;2023-08-08T09:51:11;8.98;;;8.15;;
39098;SDS011;24844;52.380;7.018;2023-08-08T09:53:37;7.53;;;0.90;;
39098;SDS011;24844;52.380;7.018;2023-08-08T09:56:04;4.60;;;2.35;;
39098;SDS011;24844;52.380;7.018;2023-08-08T09:58:30;4.72;;;1.73;;
39098;SDS011;24844;52.380;7.018;2023-08-08T10:00:56;6.75;;;4.32;;
39098;SDS011;24844;52.380;7.018;2023-08-08T10:03:23;3.08;;;0.95;;
39098;SDS011;24844;52.380;7.018;2023-08-08T10:05:49;2.38;;;1.65;;
39098;SDS011;24844;52.380;7.018;2023-08-08T10:08:15;3.45;;;1.85;;
39098;SDS011;24844;52.380;7.018;2023-08-08T10:10:41;4.00;;;1.35;;
39098;SDS011;24844;52.380;7.018;2023-08-08T10:13:09;1.83;;;0.80;;
39098;SDS011;24844;52.380;7.018;2023-08-08T10:15:43;2.25;;;1.00;;
39098;SDS011;24844;52.380;7.018;2023-08-08T10:18:09;2.22;;;1.75;;
39098;SDS011;24844;52.380;7.018;2023-08-08T10:20:35;5.72;;;2.13;;
39098;SDS011;24844;52.380;7.018;2023-08-08T10:23:02;5.60;;;4.00;;
39098;SDS011;24844;52.380;7.018;2023-08-08T10:25:28;4.22;;;2.80;;
39098;SDS011;24844;52.380;7.018;2023-08-08T10:28:07;4.82;;;2.15;;
39098;SDS011;24844;52.380;7.018;2023-08-08T10:30:59;5.57;;;4.55;;
39098;SDS011;24844;52.380;7.018;2023-08-08T10:33:39;7.63;;;3.15;;
39098;SDS011;24844;52.380;7.018;2023-08-08T10:36:07;4.65;;;1.70;;
39098;SDS011;24844;52.380;7.018;2023-08-08T10:41:14;3.03;;;2.60;;
39098;SDS011;24844;52.380;7.018;2023-08-08T10:43:51;4.32;;;0.93;;
39098;SDS011;24844;52.380;7.018;2023-08-08T10:46:28;5.35;;;1.05;;
39098;SDS011;24844;52.380;7.018;2023-08-08T10:49:02;5.40;;;3.67;;
39098;SDS011;24844;52.380;7.018;2023-08-08T10:51:35;9.23;;;8.35;;
39098;SDS011;24844;52.380;7.018;2023-08-08T10:54:05;3.13;;;1.42;;
39098;SDS011;24844;52.380;7.018;2023-08-08T10:56:32;3.15;;;1.88;;
39098;SDS011;24844;52.380;7.018;2023-08-08T10:58:59;8.15;;;7.55;;
39098;SDS011;24844;52.380;7.018;2023-08-08T11:01:37;7.68;;;7.18;;
39098;SDS011;24844;52.380;7.018;2023-08-08T11:04:03;4.78;;;2.42;;
39098;SDS011;24844;52.380;7.018;2023-08-08T11:06:30;7.57;;;6.50;;
39098;SDS011;24844;52.380;7.018;2023-08-08T11:08:57;7.82;;;6.43;;
39098;SDS011;24844;52.380;7.018;2023-08-08T11:11:25;4.73;;;2.23;;
39098;SDS011;24844;52.380;7.018;2023-08-08T11:13:51;4.18;;;3.33;;
39098;SDS011;24844;52.380;7.018;2023-08-08T11:16:17;6.95;;;6.35;;
39098;SDS011;24844;52.380;7.018;2023-08-08T11:18:44;3.35;;;2.05;;
39098;SDS011;24844;52.380;7.018;2023-08-08T11:21:10;5.20;;;3.33;;
39098;SDS011;24844;52.380;7.018;2023-08-08T11:23:36;3.47;;;3.08;;
39098;SDS011;24844;52.380;7.018;2023-08-08T11:26:03;4.40;;;2.20;;
39098;SDS011;24844;52.380;7.018;2023-08-08T11:28:29;1.52;;;0.65;;
39098;SDS011;24844;52.380;7.018;2023-08-08T11:30:55;1.65;;;0.95;;
39098;SDS011;24844;52.380;7.018;2023-08-08T11:33:20;3.08;;;2.67;;
39098;SDS011;24844;52.380;7.018;2023-08-08T11:35:47;1.95;;;1.00;;
39098;SDS011;24844;52.380;7.018;2023-08-08T11:38:14;2.47;;;0.95;;
39098;SDS011;24844;52.380;7.018;2023-08-08T11:40:40;2.28;;;0.60;;
39098;SDS011;24844;52.380;7.018;2023-08-08T11:43:06;2.10;;;1.55;;
39098;SDS011;24844;52.380;7.018;2023-08-08T11:45:32;2.03;;;0.93;;
39098;SDS011;24844;52.380;7.018;2023-08-08T11:47:59;2.15;;;1.50;;
39098;SDS011;24844;52.380;7.018;2023-08-08T11:50:26;2.17;;;1.58;;
39098;SDS011;24844;52.380;7.018;2023-08-08T11:52:53;2.40;;;0.50;;
39098;SDS011;24844;52.380;7.018;2023-08-08T11:55:20;2.80;;;1.38;;
39098;SDS011;24844;52.380;7.018;2023-08-08T11:57:49;3.25;;;0.55;;
39098;SDS011;24844;52.380;7.018;2023-08-08T12:00:15;5.28;;;1.13;;
39098;SDS011;24844;52.380;7.018;2023-08-08T12:02:44;5.38;;;3.55;;
39098;SDS011;24844;52.380;7.018;2023-08-08T12:05:11;2.33;;;0.95;;
39098;SDS011;24844;52.380;7.018;2023-08-08T12:07:38;3.75;;;1.08;;
39098;SDS011;24844;52.380;7.018;2023-08-08T12:10:13;1.35;;;0.90;;
39098;SDS011;24844;52.380;7.018;2023-08-08T12:12:44;2.80;;;0.73;;
39098;SDS011;24844;52.380;7.018;2023-08-08T12:15:11;2.22;;;2.13;;
39098;SDS011;24844;52.380;7.018;2023-08-08T12:17:37;3.70;;;1.25;;
39098;SDS011;24844;52.380;7.018;2023-08-08T12:20:03;1.50;;;0.70;;
39098;SDS011;24844;52.380;7.018;2023-08-08T12:22:30;2.83;;;1.95;;
39098;SDS011;24844;52.380;7.018;2023-08-08T12:24:56;2.00;;;1.75;;
39098;SDS011;24844;52.380;7.018;2023-08-08T12:27:21;2.85;;;2.47;;
39098;SDS011;24844;52.380;7.018;2023-08-08T12:29:47;3.97;;;1.63;;
39098;SDS011;24844;52.380;7.018;2023-08-08T12:32:13;2.92;;;1.27;;
39098;SDS011;24844;52.380;7.018;2023-08-08T12:34:38;1.65;;;1.55;;
39098;SDS011;24844;52.380;7.018;2023-08-08T12:37:04;2.97;;;1.73;;
39098;SDS011;24844;52.380;7.018;2023-08-08T12:39:29;3.40;;;1.65;;
39098;SDS011;24844;52.380;7.018;2023-08-08T12:41:55;2.60;;;1.20;;
39098;SDS011;24844;52.380;7.018;2023-08-08T12:44:21;2.42;;;0.95;;
39098;SDS011;24844;52.380;7.018;2023-08-08T12:46:47;3.17;;;1.17;;
39098;SDS011;24844;52.380;7.018;2023-08-08T12:49:14;1.08;;;0.82;;
39098;SDS011;24844;52.380;7.018;2023-08-08T12:51:39;7.68;;;4.90;;
39098;SDS011;24844;52.380;7.018;2023-08-08T12:54:05;4.32;;;2.08;;
39098;SDS011;24844;52.380;7.018;2023-08-08T12:56:31;2.40;;;0.60;;
39098;SDS011;24844;52.380;7.018;2023-08-08T12:58:56;5.05;;;4.63;;
39098;SDS011;24844;52.380;7.018;2023-08-08T13:01:22;2.97;;;0.60;;
39098;SDS011;24844;52.380;7.018;2023-08-08T13:03:50;2.50;;;0.63;;
39098;SDS011;24844;52.380;7.018;2023-08-08T13:06:15;1.85;;;1.13;;
39098;SDS011;24844;52.380;7.018;2023-08-08T13:08:41;1.20;;;0.45;;
39098;SDS011;24844;52.380;7.018;2023-08-08T13:11:07;2.47;;;0.68;;
39098;SDS011;24844;52.380;7.018;2023-08-08T13:13:33;4.45;;;2.08;;
39098;SDS011;24844;52.380;7.018;2023-08-08T13:15:58;3.15;;;0.60;;
39098;SDS011;24844;52.380;7.018;2023-08-08T13:18:24;1.42;;;0.77;;
39098;SDS011;24844;52.380;7.018;2023-08-08T13:20:49;1.65;;;0.90;;
39098;SDS011;24844;52.380;7.018;2023-08-08T13:23:15;2.22;;;1.30;;
39098;SDS011;24844;52.380;7.018;2023-08-08T13:25:41;2.83;;;1.20;;
39098;SDS011;24844;52.380;7.018;2023-08-08T13:28:06;2.70;;;1.40;;
39098;SDS011;24844;52.380;7.018;2023-08-08T13:30:33;2.45;;;1.70;;
39098;SDS011;24844;52.380;7.018;2023-08-08T13:33:00;2.05;;;1.10;;
39098;SDS011;24844;52.380;7.018;2023-08-08T13:35:25;2.83;;;1.02;;
39098;SDS011;24844;52.380;7.018;2023-08-08T13:37:52;2.92;;;1.17;;
39098;SDS011;24844;52.380;7.018;2023-08-08T13:40:19;2.08;;;1.77;;
39098;SDS011;24844;52.380;7.018;2023-08-08T13:42:45;3.03;;;1.10;;
39098;SDS011;24844;52.380;7.018;2023-08-08T13:45:13;2.42;;;1.42;;
39098;SDS011;24844;52.380;7.018;2023-08-08T13:47:39;1.73;;;1.00;;
39098;SDS011;24844;52.380;7.018;2023-08-08T13:50:05;1.63;;;0.88;;
39098;SDS011;24844;52.380;7.018;2023-08-08T13:52:32;2.28;;;1.67;;
39098;SDS011;24844;52.380;7.018;2023-08-08T13:54:58;3.03;;;1.92;;
39098;SDS011;24844;52.380;7.018;2023-08-08T13:57:24;3.22;;;1.00;;
39098;SDS011;24844;52.380;7.018;2023-08-08T13:59:50;1.33;;;0.43;;
39098;SDS011;24844;52.380;7.018;2023-08-08T14:02:15;2.10;;;1.15;;
39098;SDS011;24844;52.380;7.018;2023-08-08T14:04:43;1.87;;;1.47;;
39098;SDS011;24844;52.380;7.018;2023-08-08T14:07:09;3.58;;;3.15;;
39098;SDS011;24844;52.380;7.018;2023-08-08T14:09:35;2.67;;;1.77;;
39098;SDS011;24844;52.380;7.018;2023-08-08T14:12:00;4.25;;;1.27;;
39098;SDS011;24844;52.380;7.018;2023-08-08T14:14:26;1.80;;;0.77;;
39098;SDS011;24844;52.380;7.018;2023-08-08T14:16:52;2.75;;;2.00;;
39098;SDS011;24844;52.380;7.018;2023-08-08T14:19:17;1.65;;;0.70;;
39098;SDS011;24844;52.380;7.018;2023-08-08T14:21:44;3.55;;;2.75;;
39098;SDS011;24844;52.380;7.018;2023-08-08T14:24:09;3.15;;;0.98;;
39098;SDS011;24844;52.380;7.018;2023-08-08T14:26:35;5.07;;;4.57;;
39098;SDS011;24844;52.380;7.018;2023-08-08T14:29:01;3.65;;;0.80;;
39098;SDS011;24844;52.380;7.018;2023-08-08T14:31:26;3.25;;;1.55;;
39098;SDS011;24844;52.380;7.018;2023-08-08T14:33:52;4.28;;;0.95;;
39098;SDS011;24844;52.380;7.018;2023-08-08T14:36:17;2.85;;;0.85;;
39098;SDS011;24844;52.380;7.018;2023-08-08T14:38:43;4.25;;;0.95;;
39098;SDS011;24844;52.380;7.018;2023-08-08T14:41:09;3.00;;;1.70;;
39098;SDS011;24844;52.380;7.018;2023-08-08T14:43:34;3.92;;;0.80;;